sensor_id;sensor_type;location;lat;lon;timestamp;P1;durP1;ratioP1;P2;durP2;ratioP2
21663;SDS011;10993;52.510;13.456;2023-07-20T00:01:17;8.07;;;2.97;;
21663;SDS011;10993;52.510;13.456;2023-07-20T00:06:17;6.47;;;2.92;;
21663;SDS011;10993;52.510;13.456;2023-07-20T00:11:17;4.22;;;2.60;;
21663;SDS011;10993;52.510;13.456;2023-07-20T00:16:19;5.03;;;3.20;;
21663;SDS011;10993;52.510;13.456;2023-07-20T00:21:20;5.97;;;3.50;;
21663;SDS011;10993;52.510;13.456;2023-07-20T00:26:20;5.13;;;3.10;;
21663;SDS011;10993;52.510;13.456;2023-07-20T00:31:21;4.37;;;2.60;;
21663;SDS011;10993;52.510;13.456;2023-07-20T00:36:22;5.93;;;2.97;;
21663;SDS011;10993;52.510;13.456;2023-07-20T00:41:22;6.63;;;2.80;;
21663;SDS011;10993;52.510;13.456;2023-07-20T00:46:24;4.28;;;2.80;;
21663;SDS011;10993;52.510;13.456;2023-07-20T00:51:25;5.20;;;2.83;;
21663;SDS011;10993;52.510;13.456;2023-07-20T00:56:26;6.35;;;3.00;;
21663;SDS011;10993;52.510;13.456;2023-07-20T01:01:28;7.63;;;3.58;;
21663;SDS011;10993;52.510;13.456;2023-07-20T01:06:29;5.05;;;3.55;;
21663;SDS011;10993;52.510;13.456;2023-07-20T01:11:37;6.65;;;3.58;;
21663;SDS011;10993;52.510;13.456;2023-07-20T01:16:43;5.93;;;3.38;;
21663;SDS011;10993;52.510;13.456;2023-07-20T01:21:45;5.80;;;3.45;;
21663;SDS011;10993;52.510;13.456;2023-07-20T01:27:08;4.68;;;3.00;;
21663;SDS011;10993;52.510;13.456;2023-07-20T01:32:24;7.03;;;3.58;;
21663;SDS011;10993;52.510;13.456;2023-07-20T01:37:25;4.85;;;3.53;;
21663;SDS011;10993;52.510;13.456;2023-07-20T01:42:29;6.35;;;3.72;;
21663;SDS011;10993;52.510;13.456;2023-07-20T01:47:31;5.47;;;3.47;;
21663;SDS011;10993;52.510;13.456;2023-07-20T01:52:32;7.05;;;4.13;;
21663;SDS011;10993;52.510;13.456;2023-07-20T01:57:32;6.30;;;3.90;;
21663;SDS011;10993;52.510;13.456;2023-07-20T02:02:34;7.13;;;3.80;;
21663;SDS011;10993;52.510;13.456;2023-07-20T02:07:34;5.82;;;4.15;;
21663;SDS011;10993;52.510;13.456;2023-07-20T02:12:34;6.77;;;3.67;;
21663;SDS011;10993;52.510;13.456;2023-07-20T02:17:36;4.85;;;3.20;;
21663;SDS011;10993;52.510;13.456;2023-07-20T02:22:37;5.20;;;3.83;;
21663;SDS011;10993;52.510;13.456;2023-07-20T02:27:37;4.57;;;2.83;;
21663;SDS011;10993;52.510;13.456;2023-07-20T02:32:40;4.88;;;3.40;;
21663;SDS011;10993;52.510;13.456;2023-07-20T02:37:40;4.25;;;3.40;;
21663;SDS011;10993;52.510;13.456;2023-07-20T02:42:41;6.75;;;3.90;;
21663;SDS011;10993;52.510;13.456;2023-07-20T02:47:42;5.85;;;4.68;;
21663;SDS011;10993;52.510;13.456;2023-07-20T02:52:43;8.10;;;5.55;;
21663;SDS011;10993;52.510;13.456;2023-07-20T02:57:43;8.40;;;5.88;;
21663;SDS011;10993;52.510;13.456;2023-07-20T03:02:45;9.20;;;6.50;;
21663;SDS011;10993;52.510;13.456;2023-07-20T03:07:47;7.68;;;5.65;;
21663;SDS011;10993;52.510;13.456;2023-07-20T03:12:49;9.23;;;6.35;;
21663;SDS011;10993;52.510;13.456;2023-07-20T03:17:51;7.93;;;5.57;;
21663;SDS011;10993;52.510;13.456;2023-07-20T03:22:51;9.55;;;6.40;;
21663;SDS011;10993;52.510;13.456;2023-07-20T03:27:52;8.05;;;5.95;;
21663;SDS011;10993;52.510;13.456;2023-07-20T03:32:53;8.50;;;5.57;;
21663;SDS011;10993;52.510;13.456;2023-07-20T03:37:54;8.48;;;6.10;;
21663;SDS011;10993;52.510;13.456;2023-07-20T03:42:54;8.60;;;6.22;;
21663;SDS011;10993;52.510;13.456;2023-07-20T03:47:56;8.03;;;6.00;;
21663;SDS011;10993;52.510;13.456;2023-07-20T03:52:56;8.20;;;6.07;;
21663;SDS011;10993;52.510;13.456;2023-07-20T03:57:56;6.67;;;5.40;;
21663;SDS011;10993;52.510;13.456;2023-07-20T04:02:58;8.00;;;5.43;;
21663;SDS011;10993;52.510;13.456;2023-07-20T04:07:59;6.60;;;4.80;;
21663;SDS011;10993;52.510;13.456;2023-07-20T04:13:00;6.97;;;4.50;;
21663;SDS011;10993;52.510;13.456;2023-07-20T04:18:02;8.23;;;5.00;;
21663;SDS011;10993;52.510;13.456;2023-07-20T04:23:02;7.15;;;5.05;;
21663;SDS011;10993;52.510;13.456;2023-07-20T04:28:02;6.47;;;5.15;;
21663;SDS011;10993;52.510;13.456;2023-07-20T04:33:04;11.55;;;5.63;;
21663;SDS011;10993;52.510;13.456;2023-07-20T04:38:05;10.45;;;5.60;;
21663;SDS011;10993;52.510;13.456;2023-07-20T04:43:05;8.43;;;5.32;;
21663;SDS011;10993;52.510;13.456;2023-07-20T04:48:08;6.78;;;4.72;;
21663;SDS011;10993;52.510;13.456;2023-07-20T04:53:11;6.85;;;4.70;;
21663;SDS011;10993;52.510;13.456;2023-07-20T04:58:11;6.65;;;4.70;;
21663;SDS011;10993;52.510;13.456;2023-07-20T05:03:13;7.63;;;4.93;;
21663;SDS011;10993;52.510;13.456;2023-07-20T05:08:13;6.63;;;4.47;;
21663;SDS011;10993;52.510;13.456;2023-07-20T05:13:14;5.72;;;4.38;;
21663;SDS011;10993;52.510;13.456;2023-07-20T05:18:16;6.93;;;4.68;;
21663;SDS011;10993;52.510;13.456;2023-07-20T05:23:19;7.43;;;4.05;;
21663;SDS011;10993;52.510;13.456;2023-07-20T05:28:20;4.20;;;2.67;;
21663;SDS011;10993;52.510;13.456;2023-07-20T05:33:22;5.83;;;2.80;;
21663;SDS011;10993;52.510;13.456;2023-07-20T05:38:22;3.92;;;2.25;;
21663;SDS011;10993;52.510;13.456;2023-07-20T05:43:22;4.40;;;2.28;;
21663;SDS011;10993;52.510;13.456;2023-07-20T05:48:24;2.83;;;2.20;;
21663;SDS011;10993;52.510;13.456;2023-07-20T05:53:25;5.47;;;2.30;;
21663;SDS011;10993;52.510;13.456;2023-07-20T05:58:25;3.20;;;2.07;;
21663;SDS011;10993;52.510;13.456;2023-07-20T06:03:27;4.57;;;2.20;;
21663;SDS011;10993;52.510;13.456;2023-07-20T06:08:28;3.53;;;2.40;;
21663;SDS011;10993;52.510;13.456;2023-07-20T06:13:28;2.83;;;2.28;;
21663;SDS011;10993;52.510;13.456;2023-07-20T06:18:30;5.63;;;3.20;;
21663;SDS011;10993;52.510;13.456;2023-07-20T06:23:31;4.70;;;2.88;;
21663;SDS011;10993;52.510;13.456;2023-07-20T06:28:31;6.68;;;3.22;;
21663;SDS011;10993;52.510;13.456;2023-07-20T06:33:33;4.70;;;2.80;;
21663;SDS011;10993;52.510;13.456;2023-07-20T06:38:34;3.75;;;2.38;;
21663;SDS011;10993;52.510;13.456;2023-07-20T06:43:35;3.47;;;1.90;;
21663;SDS011;10993;52.510;13.456;2023-07-20T06:48:36;3.63;;;1.52;;
21663;SDS011;10993;52.510;13.456;2023-07-20T06:53:37;2.65;;;1.65;;
21663;SDS011;10993;52.510;13.456;2023-07-20T06:58:37;2.20;;;1.25;;
21663;SDS011;10993;52.510;13.456;2023-07-20T07:03:39;4.35;;;1.50;;
21663;SDS011;10993;52.510;13.456;2023-07-20T07:08:40;4.38;;;1.30;;
21663;SDS011;10993;52.510;13.456;2023-07-20T07:13:40;3.20;;;1.10;;
21663;SDS011;10993;52.510;13.456;2023-07-20T07:18:42;1.00;;;0.70;;
21663;SDS011;10993;52.510;13.456;2023-07-20T07:23:42;4.13;;;1.00;;
21663;SDS011;10993;52.510;13.456;2023-07-20T07:28:43;1.58;;;0.90;;
21663;SDS011;10993;52.510;13.456;2023-07-20T07:33:45;2.95;;;0.90;;
21663;SDS011;10993;52.510;13.456;2023-07-20T07:38:45;1.13;;;0.60;;
21663;SDS011;10993;52.510;13.456;2023-07-20T07:43:45;1.00;;;0.40;;
21663;SDS011;10993;52.510;13.456;2023-07-20T07:48:47;1.10;;;0.55;;
21663;SDS011;10993;52.510;13.456;2023-07-20T07:53:48;3.00;;;0.65;;
21663;SDS011;10993;52.510;13.456;2023-07-20T07:58:49;2.15;;;0.65;;
21663;SDS011;10993;52.510;13.456;2023-07-20T08:03:52;1.75;;;0.50;;
21663;SDS011;10993;52.510;13.456;2023-07-20T08:08:53;1.73;;;0.57;;
21663;SDS011;10993;52.510;13.456;2023-07-20T08:13:53;2.03;;;0.50;;
21663;SDS011;10993;52.510;13.456;2023-07-20T08:18:55;2.55;;;0.85;;
21663;SDS011;10993;52.510;13.456;2023-07-20T08:23:57;1.30;;;0.70;;
21663;SDS011;10993;52.510;13.456;2023-07-20T08:28:59;1.48;;;0.77;;
21663;SDS011;10993;52.510;13.456;2023-07-20T08:34:03;58.72;;;12.50;;
21663;SDS011;10993;52.510;13.456;2023-07-20T08:39:03;7.60;;;1.80;;
21663;SDS011;10993;52.510;13.456;2023-07-20T08:44:04;1.85;;;0.70;;
21663;SDS011;10993;52.510;13.456;2023-07-20T08:49:07;2.67;;;0.70;;
21663;SDS011;10993;52.510;13.456;2023-07-20T08:54:08;0.70;;;0.40;;
21663;SDS011;10993;52.510;13.456;2023-07-20T08:59:12;1.85;;;0.80;;
21663;SDS011;10993;52.510;13.456;2023-07-20T09:04:18;1.52;;;0.45;;
21663;SDS011;10993;52.510;13.456;2023-07-20T09:09:19;2.05;;;0.95;;
21663;SDS011;10993;52.510;13.456;2023-07-20T09:14:19;6.40;;;1.45;;
21663;SDS011;10993;52.510;13.456;2023-07-20T09:19:24;1.08;;;0.50;;
21663;SDS011;10993;52.510;13.456;2023-07-20T09:24:28;1.90;;;0.65;;
21663;SDS011;10993;52.510;13.456;2023-07-20T09:29:29;2.65;;;1.63;;
21663;SDS011;10993;52.510;13.456;2023-07-20T09:34:31;1.63;;;0.40;;
21663;SDS011;10993;52.510;13.456;2023-07-20T09:39:32;2.03;;;0.70;;
21663;SDS011;10993;52.510;13.456;2023-07-20T09:44:32;1.85;;;0.30;;
21663;SDS011;10993;52.510;13.456;2023-07-20T09:49:40;1.10;;;0.43;;
21663;SDS011;10993;52.510;13.456;2023-07-20T09:54:41;1.63;;;0.70;;
21663;SDS011;10993;52.510;13.456;2023-07-20T09:59:45;1.58;;;0.60;;
21663;SDS011;10993;52.510;13.456;2023-07-20T10:10:28;1.15;;;0.60;;
21663;SDS011;10993;52.510;13.456;2023-07-20T10:15:46;2.15;;;0.50;;
21663;SDS011;10993;52.510;13.456;2023-07-20T10:20:50;4.88;;;1.88;;
21663;SDS011;10993;52.510;13.456;2023-07-20T10:25:51;0.60;;;0.50;;
21663;SDS011;10993;52.510;13.456;2023-07-20T10:30:53;0.85;;;0.52;;
21663;SDS011;10993;52.510;13.456;2023-07-20T10:35:57;1.23;;;0.73;;
21663;SDS011;10993;52.510;13.456;2023-07-20T10:41:00;1.88;;;0.98;;
21663;SDS011;10993;52.510;13.456;2023-07-20T10:46:00;4.90;;;1.25;;
21663;SDS011;10993;52.510;13.456;2023-07-20T10:51:13;2.53;;;1.10;;
21663;SDS011;10993;52.510;13.456;2023-07-20T10:56:14;2.22;;;1.08;;
21663;SDS011;10993;52.510;13.456;2023-07-20T11:01:21;2.15;;;0.93;;
21663;SDS011;10993;52.510;13.456;2023-07-20T11:06:30;4.70;;;1.75;;
21663;SDS011;10993;52.510;13.456;2023-07-20T11:11:48;1.88;;;0.77;;
21663;SDS011;10993;52.510;13.456;2023-07-20T11:17:16;2.10;;;0.82;;
21663;SDS011;10993;52.510;13.456;2023-07-20T11:22:21;2.95;;;0.93;;
21663;SDS011;10993;52.510;13.456;2023-07-20T11:27:22;3.03;;;0.82;;
21663;SDS011;10993;52.510;13.456;2023-07-20T11:32:23;2.45;;;0.93;;
21663;SDS011;10993;52.510;13.456;2023-07-20T11:37:25;1.17;;;0.82;;
21663;SDS011;10993;52.510;13.456;2023-07-20T11:42:26;2.05;;;0.90;;
21663;SDS011;10993;52.510;13.456;2023-07-20T11:47:28;1.95;;;1.02;;
21663;SDS011;10993;52.510;13.456;2023-07-20T11:52:33;2.72;;;0.98;;
21663;SDS011;10993;52.510;13.456;2023-07-20T11:57:35;1.60;;;0.98;;
21663;SDS011;10993;52.510;13.456;2023-07-20T12:02:35;3.92;;;1.63;;
21663;SDS011;10993;52.510;13.456;2023-07-20T12:07:39;1.15;;;0.65;;
21663;SDS011;10993;52.510;13.456;2023-07-20T12:12:42;0.65;;;0.40;;
21663;SDS011;10993;52.510;13.456;2023-07-20T12:17:43;1.10;;;0.45;;
21663;SDS011;10993;52.510;13.456;2023-07-20T12:22:45;2.03;;;0.88;;
21663;SDS011;10993;52.510;13.456;2023-07-20T12:27:46;1.30;;;0.52;;
21663;SDS011;10993;52.510;13.456;2023-07-20T12:32:47;2.13;;;0.60;;
21663;SDS011;10993;52.510;13.456;2023-07-20T12:37:49;1.17;;;0.40;;
21663;SDS011;10993;52.510;13.456;2023-07-20T12:42:51;1.98;;;0.80;;
21663;SDS011;10993;52.510;13.456;2023-07-20T12:47:51;1.48;;;0.57;;
21663;SDS011;10993;52.510;13.456;2023-07-20T12:52:53;2.70;;;0.75;;
21663;SDS011;10993;52.510;13.456;2023-07-20T12:57:54;1.13;;;0.43;;
21663;SDS011;10993;52.510;13.456;2023-07-20T13:02:54;1.98;;;0.73;;
21663;SDS011;10993;52.510;13.456;2023-07-20T13:07:56;3.10;;;1.02;;
21663;SDS011;10993;52.510;13.456;2023-07-20T13:12:56;2.60;;;0.57;;
21663;SDS011;10993;52.510;13.456;2023-07-20T13:17:57;2.85;;;0.50;;
21663;SDS011;10993;52.510;13.456;2023-07-20T13:23:00;1.88;;;0.70;;
21663;SDS011;10993;52.510;13.456;2023-07-20T13:28:00;0.88;;;0.45;;
21663;SDS011;10993;52.510;13.456;2023-07-20T13:33:01;1.60;;;0.80;;
21663;SDS011;10993;52.510;13.456;2023-07-20T13:38:02;3.53;;;0.65;;
21663;SDS011;10993;52.510;13.456;2023-07-20T13:43:03;2.10;;;0.50;;
21663;SDS011;10993;52.510;13.456;2023-07-20T13:48:03;1.98;;;0.57;;
21663;SDS011;10993;52.510;13.456;2023-07-20T13:53:05;2.30;;;0.50;;
21663;SDS011;10993;52.510;13.456;2023-07-20T13:58:05;4.03;;;0.77;;
21663;SDS011;10993;52.510;13.456;2023-07-20T14:03:06;0.98;;;0.40;;
21663;SDS011;10993;52.510;13.456;2023-07-20T14:08:08;0.98;;;0.50;;
21663;SDS011;10993;52.510;13.456;2023-07-20T14:13:08;3.58;;;0.60;;
21663;SDS011;10993;52.510;13.456;2023-07-20T14:18:09;2.88;;;0.60;;
21663;SDS011;10993;52.510;13.456;2023-07-20T14:23:10;3.38;;;0.60;;
21663;SDS011;10993;52.510;13.456;2023-07-20T14:28:11;1.63;;;0.80;;
21663;SDS011;10993;52.510;13.456;2023-07-20T14:33:12;1.98;;;0.70;;
21663;SDS011;10993;52.510;13.456;2023-07-20T14:38:13;1.85;;;0.82;;
21663;SDS011;10993;52.510;13.456;2023-07-20T14:43:14;3.55;;;0.90;;
21663;SDS011;10993;52.510;13.456;2023-07-20T14:48:14;0.95;;;0.60;;
21663;SDS011;10993;52.510;13.456;2023-07-20T14:53:16;2.27;;;0.50;;
21663;SDS011;10993;52.510;13.456;2023-07-20T14:58:16;6.20;;;1.08;;
21663;SDS011;10993;52.510;13.456;2023-07-20T15:03:17;2.73;;;0.80;;
21663;SDS011;10993;52.510;13.456;2023-07-20T15:08:18;2.07;;;0.60;;
21663;SDS011;10993;52.510;13.456;2023-07-20T15:13:19;4.03;;;0.80;;
21663;SDS011;10993;52.510;13.456;2023-07-20T15:18:19;1.95;;;0.75;;
21663;SDS011;10993;52.510;13.456;2023-07-20T15:23:21;2.78;;;0.82;;
21663;SDS011;10993;52.510;13.456;2023-07-20T15:28:21;4.45;;;0.85;;
21663;SDS011;10993;52.510;13.456;2023-07-20T15:33:22;9.50;;;0.93;;
21663;SDS011;10993;52.510;13.456;2023-07-20T15:38:24;1.98;;;0.63;;
21663;SDS011;10993;52.510;13.456;2023-07-20T15:43:24;2.65;;;0.90;;
21663;SDS011;10993;52.510;13.456;2023-07-20T15:48:25;2.20;;;0.73;;
21663;SDS011;10993;52.510;13.456;2023-07-20T15:53:26;4.93;;;0.57;;
21663;SDS011;10993;52.510;13.456;2023-07-20T15:58:27;1.80;;;0.73;;
21663;SDS011;10993;52.510;13.456;2023-07-20T16:03:27;7.22;;;0.75;;
21663;SDS011;10993;52.510;13.456;2023-07-20T16:08:29;2.65;;;1.02;;
21663;SDS011;10993;52.510;13.456;2023-07-20T16:13:30;3.45;;;1.10;;
21663;SDS011;10993;52.510;13.456;2023-07-20T16:18:30;2.77;;;0.90;;
21663;SDS011;10993;52.510;13.456;2023-07-20T16:23:32;2.03;;;0.60;;
21663;SDS011;10993;52.510;13.456;2023-07-20T16:28:32;1.90;;;0.85;;
21663;SDS011;10993;52.510;13.456;2023-07-20T16:33:33;4.45;;;0.90;;
21663;SDS011;10993;52.510;13.456;2023-07-20T16:38:34;1.73;;;0.80;;
21663;SDS011;10993;52.510;13.456;2023-07-20T16:43:35;3.00;;;0.73;;
21663;SDS011;10993;52.510;13.456;2023-07-20T16:48:36;1.73;;;0.55;;
21663;SDS011;10993;52.510;13.456;2023-07-20T16:53:38;2.05;;;0.80;;
21663;SDS011;10993;52.510;13.456;2023-07-20T16:58:38;2.53;;;1.10;;
21663;SDS011;10993;52.510;13.456;2023-07-20T17:03:39;2.58;;;1.02;;
21663;SDS011;10993;52.510;13.456;2023-07-20T17:08:40;3.23;;;1.00;;
21663;SDS011;10993;52.510;13.456;2023-07-20T17:13:41;4.00;;;0.70;;
21663;SDS011;10993;52.510;13.456;2023-07-20T17:18:41;2.28;;;0.98;;
21663;SDS011;10993;52.510;13.456;2023-07-20T17:23:43;4.10;;;0.90;;
21663;SDS011;10993;52.510;13.456;2023-07-20T17:28:43;2.22;;;0.55;;
21663;SDS011;10993;52.510;13.456;2023-07-20T17:33:44;3.05;;;1.02;;
21663;SDS011;10993;52.510;13.456;2023-07-20T17:38:45;3.37;;;0.70;;
21663;SDS011;10993;52.510;13.456;2023-07-20T17:43:46;3.97;;;1.35;;
21663;SDS011;10993;52.510;13.456;2023-07-20T17:48:46;2.22;;;1.13;;
21663;SDS011;10993;52.510;13.456;2023-07-20T17:53:48;4.05;;;0.90;;
21663;SDS011;10993;52.510;13.456;2023-07-20T17:58:48;2.75;;;1.17;;
21663;SDS011;10993;52.510;13.456;2023-07-20T18:03:49;3.30;;;0.90;;
21663;SDS011;10993;52.510;13.456;2023-07-20T18:08:50;3.05;;;1.05;;
21663;SDS011;10993;52.510;13.456;2023-07-20T18:13:51;2.08;;;0.77;;
21663;SDS011;10993;52.510;13.456;2023-07-20T18:18:51;5.07;;;0.80;;
21663;SDS011;10993;52.510;13.456;2023-07-20T18:23:53;4.25;;;1.40;;
21663;SDS011;10993;52.510;13.456;2023-07-20T18:28:53;2.80;;;1.00;;
21663;SDS011;10993;52.510;13.456;2023-07-20T18:33:53;2.33;;;0.77;;
21663;SDS011;10993;52.510;13.456;2023-07-20T18:38:56;1.75;;;0.80;;
21663;SDS011;10993;52.510;13.456;2023-07-20T18:43:56;2.22;;;0.60;;
21663;SDS011;10993;52.510;13.456;2023-07-20T18:48:56;2.85;;;0.85;;
21663;SDS011;10993;52.510;13.456;2023-07-20T18:53:59;5.95;;;1.33;;
21663;SDS011;10993;52.510;13.456;2023-07-20T18:58:59;4.20;;;2.00;;
21663;SDS011;10993;52.510;13.456;2023-07-20T19:04:00;4.80;;;1.38;;
21663;SDS011;10993;52.510;13.456;2023-07-20T19:09:02;6.03;;;2.03;;
21663;SDS011;10993;52.510;13.456;2023-07-20T19:14:04;5.38;;;1.70;;
21663;SDS011;10993;52.510;13.456;2023-07-20T19:19:04;3.00;;;1.40;;
21663;SDS011;10993;52.510;13.456;2023-07-20T19:24:06;4.20;;;1.92;;
21663;SDS011;10993;52.510;13.456;2023-07-20T19:29:10;1.85;;;0.77;;
21663;SDS011;10993;52.510;13.456;2023-07-20T19:34:11;3.05;;;0.93;;
21663;SDS011;10993;52.510;13.456;2023-07-20T19:39:14;8.38;;;4.32;;
21663;SDS011;10993;52.510;13.456;2023-07-20T19:44:19;3.20;;;1.10;;
21663;SDS011;10993;52.510;13.456;2023-07-20T19:49:19;3.33;;;1.33;;
21663;SDS011;10993;52.510;13.456;2023-07-20T19:54:22;3.58;;;1.65;;
21663;SDS011;10993;52.510;13.456;2023-07-20T19:59:23;5.00;;;2.00;;
21663;SDS011;10993;52.510;13.456;2023-07-20T20:04:26;2.25;;;0.80;;
21663;SDS011;10993;52.510;13.456;2023-07-20T20:09:34;4.72;;;1.15;;
21663;SDS011;10993;52.510;13.456;2023-07-20T20:14:40;2.47;;;0.95;;
21663;SDS011;10993;52.510;13.456;2023-07-20T20:19:44;1.83;;;0.80;;
21663;SDS011;10993;52.510;13.456;2023-07-20T20:24:51;1.60;;;0.80;;
21663;SDS011;10993;52.510;13.456;2023-07-20T20:29:52;2.65;;;0.98;;
21663;SDS011;10993;52.510;13.456;2023-07-20T20:34:55;3.78;;;1.00;;
21663;SDS011;10993;52.510;13.456;2023-07-20T20:39:57;3.50;;;1.10;;
21663;SDS011;10993;52.510;13.456;2023-07-20T20:44:57;8.85;;;3.00;;
21663;SDS011;10993;52.510;13.456;2023-07-20T20:50:00;5.72;;;2.75;;
21663;SDS011;10993;52.510;13.456;2023-07-20T20:55:02;13.55;;;5.00;;
21663;SDS011;10993;52.510;13.456;2023-07-20T21:00:03;9.73;;;3.13;;
21663;SDS011;10993;52.510;13.456;2023-07-20T21:05:07;7.68;;;3.47;;
21663;SDS011;10993;52.510;13.456;2023-07-20T21:10:09;6.40;;;2.38;;
21663;SDS011;10993;52.510;13.456;2023-07-20T21:15:10;6.18;;;2.20;;
21663;SDS011;10993;52.510;13.456;2023-07-20T21:20:11;8.18;;;3.38;;
21663;SDS011;10993;52.510;13.456;2023-07-20T21:25:13;6.53;;;2.35;;
21663;SDS011;10993;52.510;13.456;2023-07-20T21:30:13;6.75;;;2.17;;
21663;SDS011;10993;52.510;13.456;2023-07-20T21:35:14;10.27;;;2.42;;
21663;SDS011;10993;52.510;13.456;2023-07-20T21:40:15;5.60;;;2.30;;
21663;SDS011;10993;52.510;13.456;2023-07-20T21:45:16;5.50;;;2.40;;
21663;SDS011;10993;52.510;13.456;2023-07-20T21:50:17;6.78;;;1.88;;
21663;SDS011;10993;52.510;13.456;2023-07-20T21:55:20;4.40;;;1.60;;
21663;SDS011;10993;52.510;13.456;2023-07-20T22:00:20;5.20;;;2.28;;
21663;SDS011;10993;52.510;13.456;2023-07-20T22:05:23;4.53;;;2.03;;
21663;SDS011;10993;52.510;13.456;2023-07-20T22:10:25;8.52;;;3.47;;
21663;SDS011;10993;52.510;13.456;2023-07-20T22:15:26;6.10;;;2.58;;
21663;SDS011;10993;52.510;13.456;2023-07-20T22:20:26;9.52;;;4.18;;
21663;SDS011;10993;52.510;13.456;2023-07-20T22:25:29;4.95;;;2.28;;
21663;SDS011;10993;52.510;13.456;2023-07-20T22:30:30;6.28;;;1.65;;
21663;SDS011;10993;52.510;13.456;2023-07-20T22:35:30;3.95;;;1.50;;
21663;SDS011;10993;52.510;13.456;2023-07-20T22:45:34;4.70;;;1.65;;
21663;SDS011;10993;52.510;13.456;2023-07-20T22:50:34;2.90;;;1.50;;
21663;SDS011;10993;52.510;13.456;2023-07-20T22:55:36;4.03;;;1.70;;
21663;SDS011;10993;52.510;13.456;2023-07-20T23:00:36;4.50;;;1.67;;
21663;SDS011;10993;52.510;13.456;2023-07-20T23:05:36;4.45;;;1.80;;
21663;SDS011;10993;52.510;13.456;2023-07-20T23:10:38;3.03;;;1.33;;
21663;SDS011;10993;52.510;13.456;2023-07-20T23:15:38;4.65;;;1.08;;
21663;SDS011;10993;52.510;13.456;2023-07-20T23:20:40;2.85;;;1.20;;
21663;SDS011;10993;52.510;13.456;2023-07-20T23:25:41;4.25;;;1.50;;
21663;SDS011;10993;52.510;13.456;2023-07-20T23:30:44;2.90;;;1.02;;
21663;SDS011;10993;52.510;13.456;2023-07-20T23:35:48;3.63;;;1.27;;
21663;SDS011;10993;52.510;13.456;2023-07-20T23:40:49;4.10;;;1.73;;
21663;SDS011;10993;52.510;13.456;2023-07-20T23:45:50;3.17;;;1.00;;
21663;SDS011;10993;52.510;13.456;2023-07-20T23:50:50;3.83;;;1.30;;
21663;SDS011;10993;52.510;13.456;2023-07-20T23:55:52;3.15;;;1.00;;
